createdAt,value
2022-11-13T00:01:16.867Z,12.20
2022-11-13T00:05:20.362Z,12.60
2022-11-13T00:09:25.080Z,10.23
2022-11-13T00:13:30.536Z,11.23
2022-11-13T00:17:34.106Z,14.57
2022-11-13T00:21:37.342Z,12.70
2022-11-13T00:25:42.142Z,17.80
2022-11-13T00:29:45.895Z,11.30
2022-11-13T00:38:12.640Z,10.87
2022-11-13T00:42:17.290Z,12.00
2022-11-13T00:46:21.089Z,9.43
2022-11-13T00:50:24.380Z,10.40
2022-11-13T00:54:27.725Z,9.30
2022-11-13T00:58:32.546Z,9.03
2022-11-13T01:02:35.838Z,11.13
2022-11-13T01:06:39.097Z,8.60
2022-11-13T01:10:45.583Z,13.23
2022-11-13T01:14:52.229Z,7.90
2022-11-13T01:18:57.332Z,9.10
2022-11-13T01:23:00.613Z,7.07
2022-11-13T01:27:03.911Z,6.37
2022-11-13T01:31:10.009Z,9.43
2022-11-13T01:35:13.244Z,9.50
2022-11-13T01:39:16.732Z,10.70
2022-11-13T01:43:27.176Z,9.63
2022-11-13T01:47:32.998Z,9.33
2022-11-13T01:51:40.466Z,11.30
2022-11-13T01:55:44.014Z,9.53
2022-11-13T01:59:52.836Z,9.87
2022-11-13T02:03:57.521Z,9.77
2022-11-13T02:08:01.702Z,11.73
2022-11-13T02:12:06.986Z,15.53
2022-11-13T02:16:13.478Z,9.97
2022-11-13T02:20:22.236Z,9.77
2022-11-13T02:24:32.379Z,9.63
2022-11-13T02:28:36.537Z,9.37
2022-11-13T02:32:44.898Z,13.47
2022-11-13T02:36:48.173Z,12.13
2022-11-13T02:40:52.961Z,9.13
2022-11-13T02:44:56.228Z,9.67
2022-11-13T02:48:59.503Z,15.93
2022-11-13T02:53:03.003Z,10.70
2022-11-13T02:57:07.632Z,7.97
2022-11-13T03:01:10.904Z,8.13
2022-11-13T03:05:14.448Z,12.73
2022-11-13T03:09:17.950Z,12.10
2022-11-13T03:13:22.600Z,13.20
2022-11-13T03:17:25.882Z,12.90
2022-11-13T03:21:29.205Z,11.70
2022-11-13T03:25:47.565Z,9.63
2022-11-13T03:29:52.236Z,10.77
2022-11-13T03:33:55.587Z,10.40
2022-11-13T03:37:58.829Z,10.63
2022-11-13T03:42:02.078Z,10.70
2022-11-13T03:46:06.934Z,12.70
2022-11-13T03:50:10.886Z,14.50
2022-11-13T03:54:14.207Z,18.03
2022-11-13T03:58:17.769Z,13.33
2022-11-13T04:02:22.499Z,12.10
2022-11-13T04:06:25.800Z,14.77
2022-11-13T04:10:29.365Z,11.50
2022-11-13T04:14:32.697Z,10.93
2022-11-13T04:18:37.340Z,11.03
2022-11-13T04:22:50.817Z,11.07
2022-11-13T04:26:54.104Z,15.50
2022-11-13T04:30:57.653Z,14.10
2022-11-13T04:35:02.308Z,11.87
2022-11-13T04:39:05.809Z,12.37
2022-11-13T04:43:09.053Z,17.63
2022-11-13T04:47:12.502Z,13.63
2022-11-13T04:51:17.185Z,16.50
2022-11-13T04:55:20.556Z,26.10
2022-11-13T04:59:24.640Z,14.00
2022-11-13T05:03:27.875Z,18.07
2022-11-13T05:07:32.605Z,18.97
2022-11-13T05:11:35.861Z,15.77
2022-11-13T05:15:39.152Z,17.00
2022-11-13T05:19:42.453Z,16.83
2022-11-13T05:23:47.241Z,26.03
2022-11-13T05:27:50.476Z,16.70
2022-11-13T05:31:53.846Z,20.13
2022-11-13T05:35:57.154Z,20.80
2022-11-13T05:40:01.883Z,28.23
2022-11-13T05:44:05.416Z,37.33
2022-11-13T05:48:08.803Z,38.20
2022-11-13T05:52:12.100Z,30.00
2022-11-13T05:56:18.885Z,29.33
2022-11-13T06:00:22.195Z,31.30
2022-11-13T06:04:25.464Z,24.33
2022-11-13T06:08:29.559Z,26.10
2022-11-13T06:12:34.555Z,23.57
2022-11-13T06:16:39.887Z,23.73
2022-11-13T06:20:43.171Z,27.87
2022-11-13T06:24:46.685Z,28.93
2022-11-13T06:28:53.844Z,29.80
2022-11-13T06:32:58.689Z,28.93
2022-11-13T06:37:02.370Z,27.03
2022-11-13T06:41:07.057Z,33.47
2022-11-13T06:45:12.816Z,24.13
2022-11-13T06:49:16.385Z,33.83
2022-11-13T06:53:20.060Z,28.57
2022-11-13T06:57:23.310Z,29.40
2022-11-13T07:01:28.446Z,23.57
2022-11-13T07:05:39.685Z,23.60
2022-11-13T07:09:43.004Z,27.50
2022-11-13T07:13:46.705Z,28.30
2022-11-13T07:17:51.337Z,26.70
2022-11-13T07:21:54.597Z,28.43
2022-11-13T07:25:57.911Z,31.17
2022-11-13T07:30:03.940Z,35.70
2022-11-13T07:34:09.016Z,32.70
2022-11-13T07:38:12.358Z,36.37
2022-11-13T07:42:16.191Z,33.43
2022-11-13T07:46:19.531Z,30.57
2022-11-13T07:50:24.181Z,33.73
2022-11-13T07:54:27.491Z,34.87
2022-11-13T07:58:32.109Z,30.17
2022-11-13T08:02:35.499Z,31.83
2022-11-13T08:06:40.631Z,29.30
2022-11-13T08:10:44.096Z,34.17
2022-11-13T08:14:47.353Z,31.70
2022-11-13T08:18:51.010Z,31.13
2022-11-13T08:22:58.275Z,30.10
2022-11-13T08:27:01.580Z,33.33
2022-11-13T08:31:33.812Z,32.60
2022-11-13T08:35:37.168Z,29.23
2022-11-13T08:39:41.966Z,35.87
2022-11-13T08:43:45.592Z,30.00
2022-11-13T08:47:48.865Z,33.13
2022-11-13T08:51:52.178Z,30.20
2022-11-13T08:55:56.822Z,31.00
2022-11-13T09:00:00.135Z,30.77
2022-11-13T09:04:03.811Z,30.93
2022-11-13T09:08:07.810Z,39.93
2022-11-13T09:12:12.551Z,36.37
2022-11-13T09:16:16.156Z,37.50
2022-11-13T09:20:22.663Z,32.47
2022-11-13T09:24:26.323Z,36.97
2022-11-13T09:28:31.302Z,30.43
2022-11-13T09:32:35.059Z,35.43
2022-11-13T09:36:38.638Z,30.23
2022-11-13T09:40:46.393Z,24.50
2022-11-13T09:44:56.029Z,27.13
2022-11-13T09:49:05.356Z,23.10
2022-11-13T09:53:11.334Z,20.37
2022-11-13T09:57:26.441Z,18.90
2022-11-13T10:01:39.753Z,15.20
2022-11-13T10:05:51.315Z,18.27
2022-11-13T10:10:06.842Z,18.63
2022-11-13T10:14:16.441Z,20.47
2022-11-13T10:18:25.665Z,17.03
2022-11-13T10:22:38.762Z,20.83
2022-11-13T10:26:42.370Z,15.17
2022-11-13T10:30:47.103Z,15.70
2022-11-13T10:40:11.178Z,16.50
2022-11-13T10:44:41.508Z,21.50
2022-11-13T10:48:45.075Z,16.43
2022-11-13T10:52:54.606Z,18.00
2022-11-13T10:57:36.211Z,15.77
2022-11-13T11:01:40.643Z,14.27
2022-11-13T11:05:54.921Z,13.50
2022-11-13T11:09:59.798Z,12.83
2022-11-13T11:14:12.289Z,15.40
2022-11-13T11:18:25.728Z,16.10
2022-11-13T11:22:34.353Z,14.97
2022-11-13T11:26:43.505Z,12.93
2022-11-13T11:30:52.988Z,13.00
2022-11-13T11:35:02.601Z,13.07
2022-11-13T11:39:26.720Z,13.73
2022-11-13T11:43:44.140Z,14.17
2022-11-13T11:47:47.883Z,16.80
2022-11-13T11:52:00.829Z,15.70
2022-11-13T11:56:24.776Z,16.67
2022-11-13T12:00:32.409Z,20.40
2022-11-13T12:04:48.011Z,14.33
2022-11-13T12:08:57.125Z,18.00
2022-11-13T12:13:14.207Z,14.00
2022-11-13T12:17:45.249Z,14.00
2022-11-13T12:21:57.694Z,15.70
2022-11-13T12:26:07.146Z,17.83
2022-11-13T12:30:14.801Z,18.43
2022-11-13T12:34:26.533Z,20.10
2022-11-13T12:38:37.626Z,19.67
2022-11-13T12:42:47.498Z,19.27
2022-11-13T12:46:51.715Z,20.07
2022-11-13T12:51:01.402Z,17.20
2022-11-13T12:55:10.271Z,19.20
2022-11-13T12:59:33.157Z,17.40
2022-11-13T13:03:51.122Z,18.97
2022-11-13T13:08:27.061Z,19.00
2022-11-13T13:12:43.307Z,16.77
2022-11-13T13:16:46.654Z,18.07
2022-11-13T13:21:03.188Z,19.87
2022-11-13T13:25:24.224Z,20.80
2022-11-13T13:29:29.007Z,22.70
2022-11-13T13:33:43.919Z,21.93
2022-11-13T13:37:58.148Z,21.87
2022-11-13T13:42:21.507Z,17.67
2022-11-13T13:46:28.314Z,22.80
2022-11-13T13:50:35.969Z,15.10
2022-11-13T13:54:43.571Z,18.03
2022-11-13T13:58:49.804Z,22.13
2022-11-13T14:02:54.617Z,21.73
2022-11-13T14:07:00.341Z,13.50
2022-11-13T14:11:05.943Z,13.77
2022-11-13T14:15:24.233Z,12.17
2022-11-13T14:19:28.358Z,13.87
2022-11-13T14:23:37.552Z,14.07
2022-11-13T14:27:41.091Z,13.43
2022-11-13T14:31:46.028Z,16.33
2022-11-13T14:35:54.314Z,13.50
2022-11-13T14:40:02.098Z,12.97
2022-11-13T14:44:06.813Z,18.30
2022-11-13T14:48:22.465Z,15.03
2022-11-13T14:52:27.389Z,12.80
2022-11-13T14:56:37.301Z,11.47
2022-11-13T15:00:41.234Z,14.57
2022-11-13T15:04:47.049Z,13.53
2022-11-13T15:08:56.392Z,12.30
2022-11-13T15:13:02.027Z,14.70
2022-11-13T15:17:05.952Z,20.00
2022-11-13T15:21:11.406Z,16.20
2022-11-13T15:25:18.544Z,17.63
2022-11-13T15:29:22.748Z,16.30
2022-11-13T15:33:27.581Z,20.33
2022-11-13T15:37:38.094Z,21.03
2022-11-13T15:41:42.397Z,14.60
2022-11-13T15:45:48.619Z,18.03
2022-11-13T15:50:12.371Z,19.57
2022-11-13T15:54:22.984Z,16.77
2022-11-13T15:58:33.513Z,21.73
2022-11-13T16:02:40.098Z,18.93
2022-11-13T16:06:47.957Z,20.90
2022-11-13T16:10:55.028Z,19.10
2022-11-13T16:14:59.341Z,24.77
2022-11-13T16:19:04.257Z,16.27
2022-11-13T16:23:16.100Z,21.20
2022-11-13T16:27:28.042Z,22.03
2022-11-13T16:31:32.100Z,19.23
2022-11-13T16:35:37.815Z,17.10
2022-11-13T16:39:41.880Z,16.20
2022-11-13T16:43:48.867Z,17.50
2022-11-13T16:47:53.803Z,19.10
2022-11-13T16:51:59.789Z,18.33
2022-11-13T16:56:07.968Z,27.80
2022-11-13T17:00:19.842Z,20.87
2022-11-13T17:04:24.652Z,19.90
2022-11-13T17:08:29.254Z,25.10
2022-11-13T17:12:34.151Z,22.20
2022-11-13T17:16:40.961Z,20.83
2022-11-13T17:20:46.466Z,20.83
2022-11-13T17:24:53.105Z,21.40
2022-11-13T17:28:58.523Z,20.73
2022-11-13T17:33:05.399Z,25.53
2022-11-13T17:37:25.376Z,21.37
2022-11-13T17:41:32.743Z,18.10
2022-11-13T17:45:45.639Z,22.10
2022-11-13T17:49:52.534Z,30.30
2022-11-13T17:54:01.788Z,21.43
2022-11-13T17:58:08.343Z,21.87
2022-11-13T18:02:17.705Z,21.97
2022-11-13T18:11:21.966Z,23.77
2022-11-13T18:15:40.133Z,25.87
2022-11-13T18:19:44.619Z,30.10
2022-11-13T18:23:58.533Z,31.50
2022-11-13T18:28:05.525Z,26.00
2022-11-13T18:32:10.728Z,27.87
2022-11-13T18:36:14.772Z,27.37
2022-11-13T18:40:21.702Z,26.60
2022-11-13T18:44:27.180Z,30.53
2022-11-13T18:48:34.029Z,27.53
2022-11-13T18:52:39.037Z,28.57
2022-11-13T18:56:48.520Z,27.90
2022-11-13T19:00:52.618Z,33.13
2022-11-13T19:04:57.797Z,28.80
2022-11-13T19:09:04.951Z,31.50
2022-11-13T19:13:12.323Z,34.40
2022-11-13T19:17:17.808Z,30.83
2022-11-13T19:21:24.464Z,27.53
2022-11-13T19:25:32.023Z,28.73
2022-11-13T19:29:40.581Z,26.07
2022-11-13T19:33:50.367Z,23.73
2022-11-13T19:38:00.472Z,28.87
2022-11-13T19:42:06.486Z,26.37
2022-11-13T19:46:15.490Z,24.80
2022-11-13T19:50:20.267Z,23.73
2022-11-13T19:54:27.206Z,24.93
2022-11-13T19:58:35.131Z,27.80
2022-11-13T20:02:42.803Z,28.00
2022-11-13T20:06:48.365Z,26.00
2022-11-13T20:10:56.154Z,22.73
2022-11-13T20:15:02.703Z,24.80
2022-11-13T20:19:09.407Z,25.33
2022-11-13T20:23:16.498Z,25.40
2022-11-13T20:27:32.466Z,22.10
2022-11-13T20:31:38.881Z,22.73
2022-11-13T20:35:47.328Z,23.80
2022-11-13T20:39:53.238Z,22.33
2022-11-13T20:44:03.722Z,22.10
2022-11-13T20:48:08.763Z,23.53
2022-11-13T20:52:16.100Z,28.70
2022-11-13T20:56:25.260Z,20.67
2022-11-13T21:00:30.148Z,24.63
2022-11-13T21:04:34.217Z,22.33
2022-11-13T21:08:39.412Z,24.83
2022-11-13T21:12:43.386Z,18.83
2022-11-13T21:16:50.040Z,18.83
2022-11-13T21:20:56.417Z,21.87
2022-11-13T21:25:15.241Z,19.13
2022-11-13T21:29:19.329Z,23.33
2022-11-13T21:33:22.698Z,19.77
2022-11-13T21:37:27.093Z,25.17
2022-11-13T21:41:32.045Z,21.53
2022-11-13T21:45:35.516Z,21.93
2022-11-13T21:49:38.837Z,24.80
2022-11-13T21:53:42.994Z,23.37
2022-11-13T21:57:47.691Z,25.47
2022-11-13T22:01:51.151Z,25.00
2022-11-13T22:06:19.392Z,23.77
2022-11-13T22:10:22.657Z,22.13
2022-11-13T22:14:27.377Z,28.00
2022-11-13T22:18:30.845Z,24.87
2022-11-13T22:22:34.480Z,22.30
2022-11-13T22:26:39.385Z,21.17
2022-11-13T22:30:47.352Z,22.10
2022-11-13T22:34:50.628Z,23.83
2022-11-13T22:38:54.490Z,27.00
2022-11-13T22:42:57.781Z,21.23
2022-11-13T22:47:02.500Z,20.43
2022-11-13T22:51:07.520Z,21.70
2022-11-13T22:55:11.089Z,19.67
2022-11-13T22:59:14.357Z,20.00
2022-11-13T23:03:19.146Z,18.07
2022-11-13T23:07:22.535Z,20.10
2022-11-13T23:11:29.731Z,17.97
2022-11-13T23:15:33.218Z,18.97
2022-11-13T23:19:37.918Z,22.47
2022-11-13T23:23:41.551Z,20.13
2022-11-13T23:27:45.357Z,19.50
2022-11-13T23:31:48.654Z,22.50
2022-11-13T23:35:53.814Z,22.80
2022-11-13T23:39:57.067Z,19.23
2022-11-13T23:44:09.465Z,16.93
2022-11-13T23:48:13.139Z,22.30
2022-11-13T23:52:17.867Z,19.80
2022-11-13T23:56:21.221Z,18.00
